Terminal Aerodrome Forecast
Issued by NWS Atlanta, GA

Home | Current Version | Previous Version | Text Only | Print | Product List | Glossary On
Versions: 1 2 3 4 5 6 7 8 9 10 11 12 13 14 15 16 17 18
673
FTUS42 KFFC 192328
TAFMCN
TAF
KMCN 192328Z 2000/2024 17005KT P6SM SCT060
     FM200800 15004KT 3SM BR BKN010
     FM201000 14004KT 2SM BR BKN007
     FM201600 15007KT P6SM BKN015
     FM201900 15005KT P6SM SCT030=

USA.gov is the U.S. government's official web portal to all federal, state and local government web resources and services.